createdAt,value
2018-10-19T00:00:54.053Z,17.62
2018-10-19T00:03:22.537Z,17.58
2018-10-19T00:05:50.826Z,17.66
2018-10-19T00:08:19.223Z,17.60
2018-10-19T00:10:47.598Z,17.81
2018-10-19T00:13:15.898Z,17.26
2018-10-19T00:15:44.207Z,17.19
2018-10-19T00:18:12.537Z,16.95
2018-10-19T00:20:40.911Z,17.18
2018-10-19T00:23:09.288Z,17.15
2018-10-19T00:25:37.542Z,17.10
2018-10-19T00:28:05.912Z,17.39
2018-10-19T00:30:34.385Z,17.40
2018-10-19T00:33:02.690Z,17.39
2018-10-19T00:35:30.915Z,17.30
2018-10-19T00:37:59.236Z,17.44
2018-10-19T00:40:27.930Z,17.44
2018-10-19T00:42:56.268Z,17.37
2018-10-19T00:45:29.976Z,17.25
2018-10-19T00:47:58.258Z,17.18
2018-10-19T00:50:26.657Z,17.12
2018-10-19T00:52:54.966Z,17.13
2018-10-19T00:55:23.244Z,17.11
2018-10-19T00:57:51.555Z,16.85
2018-10-19T01:00:20.068Z,16.96
2018-10-19T01:02:48.631Z,16.96
2018-10-19T01:05:16.968Z,16.91
2018-10-19T01:07:45.286Z,16.84
2018-10-19T01:10:17.737Z,16.94
2018-10-19T01:12:46.278Z,16.81
2018-10-19T01:15:14.624Z,17.06
2018-10-19T01:17:42.936Z,17.00
2018-10-19T01:20:11.462Z,17.01
2018-10-19T01:22:39.716Z,16.90
2018-10-19T01:25:08.064Z,16.78
2018-10-19T01:27:36.614Z,16.75
2018-10-19T01:30:06.217Z,16.67
2018-10-19T01:32:34.669Z,16.76
2018-10-19T01:35:03.309Z,16.56
2018-10-19T01:37:31.572Z,16.48
2018-10-19T01:39:59.964Z,16.56
2018-10-19T01:42:28.313Z,16.81
2018-10-19T01:44:57.374Z,16.35
2018-10-19T01:47:25.644Z,16.73
2018-10-19T01:49:53.909Z,16.82
2018-10-19T01:52:22.232Z,16.74
2018-10-19T01:54:50.701Z,16.80
2018-10-19T01:57:19.262Z,16.56
2018-10-19T01:59:47.628Z,16.67
2018-10-19T02:02:15.904Z,16.38
2018-10-19T02:04:44.302Z,16.59
2018-10-19T02:07:12.596Z,16.60
2018-10-19T02:09:41.080Z,16.62
2018-10-19T02:12:09.802Z,16.16
2018-10-19T02:14:38.644Z,16.48
2018-10-19T02:17:07.392Z,16.09
2018-10-19T02:19:42.050Z,16.45
2018-10-19T02:22:10.616Z,16.63
2018-10-19T02:24:39.022Z,16.50
2018-10-19T02:27:08.033Z,16.58
2018-10-19T02:29:36.268Z,16.54
2018-10-19T02:32:04.819Z,16.53
2018-10-19T02:34:33.192Z,16.55
2018-10-19T02:37:01.542Z,16.43
2018-10-19T02:39:30.068Z,16.54
2018-10-19T02:41:58.399Z,16.47
2018-10-19T02:44:26.876Z,16.35
2018-10-19T02:46:55.239Z,16.45
2018-10-19T02:49:23.585Z,16.48
2018-10-19T02:51:51.867Z,16.32
2018-10-19T02:54:20.529Z,16.37
2018-10-19T02:56:48.892Z,16.48
2018-10-19T02:59:17.264Z,16.33
2018-10-19T03:01:45.707Z,16.30
2018-10-19T03:04:14.017Z,16.35
2018-10-19T03:06:42.282Z,16.18
2018-10-19T03:09:11.431Z,16.06
2018-10-19T03:11:39.935Z,16.03
2018-10-19T03:14:08.265Z,15.65
2018-10-19T03:16:36.591Z,15.56
2018-10-19T03:19:05.176Z,15.79
2018-10-19T03:21:33.436Z,16.13
2018-10-19T03:24:01.780Z,16.23
2018-10-19T03:26:30.066Z,16.21
2018-10-19T03:28:58.431Z,16.00
2018-10-19T03:31:27.019Z,16.09
2018-10-19T03:33:55.334Z,16.09
2018-10-19T03:36:23.660Z,16.10
2018-10-19T03:38:52.081Z,16.00
2018-10-19T03:41:20.378Z,15.69
2018-10-19T03:43:48.722Z,15.83
2018-10-19T03:46:17.208Z,15.58
2018-10-19T03:48:45.524Z,15.62
2018-10-19T03:51:13.920Z,15.90
2018-10-19T03:53:42.173Z,15.53
2018-10-19T03:56:10.518Z,15.70
2018-10-19T03:58:38.790Z,15.46
2018-10-19T04:01:07.384Z,15.30
2018-10-19T04:03:35.858Z,15.31
2018-10-19T04:06:04.230Z,15.30
2018-10-19T04:08:32.653Z,15.59
2018-10-19T04:11:01.198Z,15.39
2018-10-19T04:13:29.584Z,15.45
2018-10-19T04:15:57.970Z,15.87
2018-10-19T04:18:26.232Z,15.61
2018-10-19T04:20:54.646Z,15.66
2018-10-19T04:23:23.114Z,15.45
2018-10-19T04:25:51.430Z,15.60
2018-10-19T04:28:19.999Z,15.18
2018-10-19T04:30:48.316Z,15.28
2018-10-19T04:33:16.824Z,15.68
2018-10-19T04:35:45.091Z,15.59
2018-10-19T04:38:13.394Z,15.75
2018-10-19T04:40:41.860Z,15.56
2018-10-19T04:43:10.171Z,15.78
2018-10-19T04:45:40.490Z,15.88
2018-10-19T04:48:08.907Z,15.96
2018-10-19T04:50:37.197Z,15.58
2018-10-19T04:53:05.600Z,15.69
2018-10-19T04:55:34.050Z,15.67
2018-10-19T04:58:02.341Z,15.68
2018-10-19T05:00:30.683Z,15.71
2018-10-19T05:02:58.979Z,15.67
2018-10-19T05:05:27.320Z,15.62
2018-10-19T05:07:55.571Z,15.64
2018-10-19T05:10:23.901Z,15.75
2018-10-19T05:12:52.242Z,15.64
2018-10-19T05:15:20.535Z,15.37
2018-10-19T05:17:48.963Z,15.18
2018-10-19T05:20:17.640Z,15.06
2018-10-19T05:22:45.868Z,15.23
2018-10-19T05:25:14.368Z,15.41
2018-10-19T05:27:42.847Z,15.51
2018-10-19T05:30:12.440Z,15.51
2018-10-19T05:32:41.592Z,15.51
2018-10-19T05:35:09.966Z,15.22
2018-10-19T05:37:39.180Z,15.42
2018-10-19T05:40:09.142Z,15.47
2018-10-19T05:42:37.910Z,15.46
2018-10-19T05:45:08.644Z,15.65
2018-10-19T05:47:36.973Z,15.74
2018-10-19T05:50:06.146Z,15.67
2018-10-19T05:52:34.651Z,15.72
2018-10-19T05:55:03.028Z,15.79
2018-10-19T05:57:31.331Z,15.71
2018-10-19T05:59:59.661Z,15.77
2018-10-19T06:02:28.217Z,15.51
2018-10-19T06:04:56.435Z,15.29
2018-10-19T06:07:24.784Z,15.47
2018-10-19T06:09:53.120Z,15.49
2018-10-19T06:12:21.473Z,15.48
2018-10-19T06:14:49.984Z,15.56
2018-10-19T06:17:18.389Z,15.65
2018-10-19T06:19:46.822Z,15.49
2018-10-19T06:22:15.140Z,15.66
2018-10-19T06:24:43.489Z,15.83
2018-10-19T06:27:11.979Z,15.77
2018-10-19T06:29:40.464Z,15.70
2018-10-19T06:32:09.035Z,15.86
2018-10-19T06:34:37.321Z,15.99
2018-10-19T06:37:05.694Z,15.90
2018-10-19T06:39:34.172Z,16.23
2018-10-19T06:42:02.644Z,16.47
2018-10-19T06:44:30.956Z,16.74
2018-10-19T06:46:59.585Z,16.45
2018-10-19T06:49:27.823Z,16.39
2018-10-19T06:51:56.118Z,16.00
2018-10-19T06:54:24.526Z,16.13
2018-10-19T06:56:52.835Z,16.27
2018-10-19T06:59:21.315Z,16.10
2018-10-19T07:01:49.605Z,16.16
2018-10-19T07:04:17.882Z,16.35
2018-10-19T07:06:46.270Z,16.60
2018-10-19T07:09:14.652Z,16.62
2018-10-19T07:11:42.979Z,16.49
2018-10-19T07:14:11.432Z,16.30
2018-10-19T07:16:39.710Z,16.35
2018-10-19T07:19:08.257Z,16.16
2018-10-19T07:21:36.471Z,16.28
2018-10-19T07:24:05.022Z,16.49
2018-10-19T07:26:33.360Z,16.49
2018-10-19T07:29:01.670Z,17.00
2018-10-19T07:31:30.442Z,17.13
2018-10-19T07:33:58.827Z,17.40
2018-10-19T07:36:27.210Z,17.02
2018-10-19T07:38:55.512Z,16.76
2018-10-19T07:41:23.947Z,16.60
2018-10-19T07:43:52.367Z,16.77
2018-10-19T07:46:20.753Z,16.87
2018-10-19T07:48:49.045Z,17.32
2018-10-19T07:51:17.393Z,17.49
2018-10-19T07:53:45.766Z,17.62
2018-10-19T07:56:14.372Z,18.06
2018-10-19T07:58:43.034Z,18.10
2018-10-19T08:01:11.473Z,18.11
2018-10-19T08:03:39.684Z,18.26
2018-10-19T08:06:08.056Z,18.57
2018-10-19T08:08:36.533Z,18.71
2018-10-19T08:11:05.371Z,19.02
2018-10-19T08:13:33.792Z,19.10
2018-10-19T08:16:02.377Z,18.67
2018-10-19T08:18:30.696Z,18.53
2018-10-19T08:20:59.091Z,18.60
2018-10-19T08:23:27.431Z,18.79
2018-10-19T08:25:55.816Z,19.09
2018-10-19T08:28:24.214Z,18.69
2018-10-19T08:30:52.649Z,18.31
2018-10-19T08:33:20.929Z,17.75
2018-10-19T08:35:49.453Z,17.89
2018-10-19T08:38:17.880Z,18.61
2018-10-19T08:40:46.298Z,19.16
2018-10-19T08:43:14.656Z,19.31
2018-10-19T08:45:43.151Z,18.99
2018-10-19T08:48:11.689Z,19.64
2018-10-19T08:50:40.081Z,19.90
2018-10-19T08:53:08.511Z,19.79
2018-10-19T08:55:36.976Z,20.20
2018-10-19T08:58:05.794Z,20.57
2018-10-19T09:00:34.318Z,20.27
2018-10-19T09:03:03.038Z,20.25
2018-10-19T09:05:31.352Z,20.53
2018-10-19T09:07:59.685Z,20.35
2018-10-19T09:10:27.925Z,20.84
2018-10-19T09:12:56.358Z,20.95
2018-10-19T09:15:24.742Z,21.20
2018-10-19T09:17:53.028Z,20.80
2018-10-19T09:20:21.550Z,20.83
2018-10-19T09:22:50.647Z,21.13
2018-10-19T09:25:18.969Z,21.51
2018-10-19T09:27:47.308Z,21.39
2018-10-19T09:30:15.632Z,21.92
2018-10-19T09:32:44.024Z,20.74
2018-10-19T09:35:12.617Z,20.72
2018-10-19T09:37:40.993Z,21.11
2018-10-19T09:40:09.443Z,20.61
2018-10-19T09:42:37.757Z,20.44
2018-10-19T09:45:06.989Z,20.88
2018-10-19T09:47:35.413Z,20.79
2018-10-19T09:50:03.823Z,21.37
2018-10-19T09:52:32.221Z,22.08
2018-10-19T09:55:00.716Z,21.79
2018-10-19T09:57:29.010Z,22.36
2018-10-19T09:59:57.444Z,22.68
2018-10-19T10:02:26.019Z,22.68
2018-10-19T10:04:54.486Z,22.64
2018-10-19T10:07:22.923Z,22.38
2018-10-19T10:09:51.508Z,22.78
2018-10-19T10:12:19.972Z,23.18
2018-10-19T10:14:48.692Z,23.43
2018-10-19T10:17:17.418Z,23.07
2018-10-19T10:19:46.197Z,23.33
2018-10-19T10:22:15.241Z,23.52
2018-10-19T10:24:43.603Z,23.42
2018-10-19T10:27:11.931Z,22.86
2018-10-19T10:29:40.301Z,23.54
2018-10-19T10:32:08.742Z,22.63
2018-10-19T10:34:37.091Z,22.91
2018-10-19T10:37:05.565Z,22.68
2018-10-19T10:39:33.813Z,22.39
2018-10-19T10:42:02.199Z,22.94
2018-10-19T10:44:30.505Z,22.29
2018-10-19T10:46:58.979Z,22.97
2018-10-19T10:49:27.255Z,22.10
2018-10-19T10:51:56.520Z,22.11
2018-10-19T10:54:24.887Z,23.53
2018-10-19T10:56:53.680Z,22.41
2018-10-19T10:59:22.111Z,23.05
2018-10-19T11:01:50.646Z,22.61
2018-10-19T11:04:19.281Z,23.04
2018-10-19T11:06:47.782Z,22.88
2018-10-19T11:09:16.106Z,23.20
2018-10-19T11:11:45.325Z,23.71
2018-10-19T11:14:13.692Z,24.58
2018-10-19T11:16:42.008Z,24.18
2018-10-19T11:19:10.450Z,23.70
2018-10-19T11:21:38.905Z,23.85
2018-10-19T11:24:07.422Z,24.19
2018-10-19T11:26:35.835Z,24.42
2018-10-19T11:29:04.571Z,24.12
2018-10-19T11:31:32.923Z,23.91
2018-10-19T11:34:01.463Z,23.69
2018-10-19T11:36:29.787Z,24.30
2018-10-19T11:38:59.155Z,25.16
2018-10-19T11:41:28.331Z,25.33
2018-10-19T11:43:56.753Z,25.15
2018-10-19T11:46:25.246Z,24.61
2018-10-19T11:48:53.861Z,24.89
2018-10-19T11:51:22.153Z,26.31
2018-10-19T11:53:50.528Z,27.73
2018-10-19T11:56:18.871Z,27.87
2018-10-19T11:58:47.271Z,28.26
2018-10-19T12:01:15.860Z,28.14
2018-10-19T12:03:44.477Z,27.71
2018-10-19T12:06:13.098Z,28.46
2018-10-19T12:08:41.467Z,28.52
2018-10-19T12:11:09.830Z,29.30
2018-10-19T12:13:38.451Z,30.20
2018-10-19T12:16:07.281Z,31.10
2018-10-19T12:18:35.825Z,31.86
2018-10-19T12:21:08.126Z,30.46
2018-10-19T12:23:37.301Z,30.53
2018-10-19T12:26:06.294Z,32.30
2018-10-19T12:28:34.734Z,32.68
2018-10-19T12:31:03.291Z,32.36
2018-10-19T12:33:31.558Z,33.41
2018-10-19T12:36:00.380Z,33.08
2018-10-19T12:38:28.771Z,35.15
2018-10-19T12:40:57.181Z,34.00
2018-10-19T12:43:25.489Z,32.99
2018-10-19T12:46:46.927Z,34.11
2018-10-19T12:49:16.897Z,34.55
2018-10-19T12:51:45.295Z,31.52
2018-10-19T12:54:13.859Z,32.19
2018-10-19T12:56:42.244Z,29.10
2018-10-19T12:59:10.705Z,30.88
2018-10-19T13:01:39.058Z,30.75
2018-10-19T13:04:07.561Z,32.32
2018-10-19T13:06:35.846Z,34.54
2018-10-19T13:09:07.079Z,33.45
2018-10-19T13:11:35.357Z,34.23
2018-10-19T13:14:03.731Z,34.84
2018-10-19T13:16:32.122Z,34.99
2018-10-19T13:19:00.546Z,34.84
2018-10-19T13:21:28.978Z,33.59
2018-10-19T13:23:57.353Z,32.52
2018-10-19T13:26:25.790Z,32.79
2018-10-19T13:28:54.169Z,32.42
2018-10-19T13:31:22.666Z,32.12
2018-10-19T13:33:51.072Z,32.65
2018-10-19T13:36:19.709Z,33.09
2018-10-19T13:38:48.149Z,33.23
2018-10-19T13:41:16.572Z,33.55
2018-10-19T13:43:45.618Z,34.12
2018-10-19T13:46:14.067Z,34.10
2018-10-19T13:48:42.465Z,35.07
2018-10-19T13:51:11.009Z,35.56
2018-10-19T13:53:39.463Z,35.76
2018-10-19T13:56:07.899Z,34.76
2018-10-19T13:58:36.558Z,34.38
2018-10-19T14:01:05.723Z,34.07
2018-10-19T14:03:34.206Z,33.66
2018-10-19T14:06:02.622Z,33.10
2018-10-19T14:08:31.064Z,32.66
2018-10-19T14:10:59.448Z,32.54
2018-10-19T14:13:27.812Z,31.90
2018-10-19T14:15:56.255Z,31.28
2018-10-19T14:18:24.749Z,31.54
2018-10-19T14:20:53.202Z,32.02
2018-10-19T14:23:21.570Z,32.17
2018-10-19T14:25:49.989Z,30.43
2018-10-19T14:28:18.342Z,29.95
2018-10-19T14:30:46.980Z,29.64
2018-10-19T14:33:15.411Z,30.77
2018-10-19T14:35:43.755Z,30.98
2018-10-19T14:38:12.100Z,30.23
2018-10-19T14:40:40.509Z,31.98
2018-10-19T14:43:08.854Z,32.63
2018-10-19T14:45:37.265Z,32.06
2018-10-19T14:48:06.027Z,31.21
2018-10-19T14:50:34.514Z,30.80
2018-10-19T14:53:03.294Z,32.08
2018-10-19T14:55:31.686Z,30.79
2018-10-19T14:58:00.289Z,29.98
2018-10-19T15:00:28.901Z,31.18
2018-10-19T15:02:57.224Z,30.46
2018-10-19T15:05:25.553Z,30.19
2018-10-19T15:07:54.079Z,30.89
2018-10-19T15:10:23.135Z,31.01
2018-10-19T15:12:51.356Z,31.37
2018-10-19T15:15:21.166Z,31.85
2018-10-19T15:17:49.464Z,30.19
2018-10-19T15:20:18.109Z,29.38
2018-10-19T15:22:46.735Z,30.68
2018-10-19T15:25:15.037Z,29.46
2018-10-19T15:27:44.685Z,28.94
2018-10-19T15:30:15.737Z,27.40
2018-10-19T15:32:44.027Z,27.41
2018-10-19T15:35:12.320Z,27.46
2018-10-19T15:37:40.887Z,26.50
2018-10-19T15:40:10.039Z,25.86
2018-10-19T15:42:38.551Z,25.77
2018-10-19T15:45:08.645Z,25.82
2018-10-19T15:47:37.003Z,26.43
2018-10-19T15:50:05.514Z,26.20
2018-10-19T15:52:33.916Z,25.48
2018-10-19T15:55:02.229Z,25.17
2018-10-19T15:57:30.555Z,25.00
2018-10-19T15:59:58.990Z,25.11
2018-10-19T16:02:27.307Z,25.25
2018-10-19T16:04:55.623Z,25.13
2018-10-19T16:07:23.887Z,24.73
2018-10-19T16:09:52.357Z,24.64
2018-10-19T16:12:20.806Z,23.79
2018-10-19T16:14:49.164Z,24.09
2018-10-19T16:17:17.433Z,24.06
2018-10-19T16:19:45.713Z,23.88
2018-10-19T16:22:14.032Z,23.81
2018-10-19T16:24:42.324Z,23.55
2018-10-19T16:27:10.695Z,23.52
2018-10-19T16:29:38.965Z,23.40
2018-10-19T16:32:07.404Z,23.42
2018-10-19T16:34:35.860Z,23.36
2018-10-19T16:37:04.142Z,23.03
2018-10-19T16:39:32.392Z,22.95
2018-10-19T16:42:00.957Z,22.92
2018-10-19T16:44:29.220Z,22.82
2018-10-19T16:46:57.525Z,22.75
2018-10-19T16:49:25.855Z,22.64
2018-10-19T16:51:54.254Z,22.45
2018-10-19T16:54:22.550Z,22.42
2018-10-19T16:56:50.852Z,22.33
2018-10-19T16:59:19.276Z,22.13
2018-10-19T17:01:55.645Z,22.08
2018-10-19T17:04:24.163Z,22.13
2018-10-19T17:06:52.795Z,22.04
2018-10-19T17:09:21.333Z,21.96
2018-10-19T17:11:50.023Z,21.97
2018-10-19T17:14:18.606Z,22.04
2018-10-19T17:16:47.323Z,22.02
2018-10-19T17:19:15.977Z,21.74
2018-10-19T17:21:44.832Z,21.78
2018-10-19T17:24:13.539Z,21.94
2018-10-19T17:26:42.467Z,21.76
2018-10-19T17:29:12.513Z,21.86
2018-10-19T17:31:41.068Z,21.58
2018-10-19T17:34:15.371Z,21.60
2018-10-19T17:36:44.242Z,21.48
2018-10-19T17:39:13.161Z,21.54
2018-10-19T17:41:41.806Z,21.45
2018-10-19T17:44:10.893Z,21.22
2018-10-19T17:46:39.570Z,21.16
2018-10-19T17:49:08.382Z,21.16
2018-10-19T17:51:36.869Z,21.34
2018-10-19T17:54:07.747Z,21.18
2018-10-19T17:56:38.667Z,21.16
2018-10-19T17:59:07.233Z,21.03
2018-10-19T18:01:35.725Z,21.03
2018-10-19T18:04:04.391Z,20.96
2018-10-19T18:06:33.786Z,20.77
2018-10-19T18:09:02.356Z,20.77
2018-10-19T18:11:30.883Z,20.98
2018-10-19T18:13:59.552Z,20.75
2018-10-19T18:16:28.614Z,20.86
2018-10-19T18:18:58.234Z,20.82
2018-10-19T18:21:27.028Z,20.80
2018-10-19T18:23:55.516Z,20.53
2018-10-19T18:26:25.085Z,20.42
2018-10-19T18:28:53.682Z,20.47
2018-10-19T18:31:22.556Z,20.36
2018-10-19T18:33:51.481Z,20.34
2018-10-19T18:36:20.160Z,20.10
2018-10-19T18:38:50.240Z,20.06
2018-10-19T18:41:19.442Z,20.08
2018-10-19T18:43:48.375Z,19.74
2018-10-19T18:46:17.061Z,20.06
2018-10-19T18:48:45.496Z,19.89
2018-10-19T18:51:14.530Z,20.00
2018-10-19T18:53:43.338Z,19.91
2018-10-19T18:56:11.871Z,19.94
2018-10-19T18:58:40.736Z,19.74
2018-10-19T19:01:09.353Z,20.02
2018-10-19T19:03:38.306Z,19.65
2018-10-19T19:06:06.803Z,19.57
2018-10-19T19:08:37.782Z,19.64
2018-10-19T19:11:06.322Z,19.71
2018-10-19T19:13:38.912Z,19.77
2018-10-19T19:16:12.143Z,19.75
2018-10-19T19:18:41.960Z,19.77
2018-10-19T19:21:11.666Z,19.52
2018-10-19T19:23:45.292Z,19.66
2018-10-19T19:26:14.492Z,19.61
2018-10-19T19:28:43.005Z,19.43
2018-10-19T19:31:11.842Z,19.64
2018-10-19T19:33:45.599Z,19.58
2018-10-19T19:36:14.455Z,19.33
2018-10-19T19:38:46.265Z,19.40
2018-10-19T19:41:20.262Z,19.13
2018-10-19T19:43:48.824Z,19.34
2018-10-19T19:46:17.247Z,19.34
2018-10-19T19:48:50.966Z,19.02
2018-10-19T19:51:19.641Z,19.19
2018-10-19T19:53:48.680Z,18.95
2018-10-19T19:56:17.788Z,19.06
2018-10-19T19:58:48.011Z,19.17
2018-10-19T20:01:16.936Z,19.18
2018-10-19T20:03:46.450Z,19.10
2018-10-19T20:06:15.813Z,19.01
2018-10-19T20:08:44.733Z,18.73
2018-10-19T20:11:13.599Z,18.79
2018-10-19T20:13:42.406Z,18.41
2018-10-19T20:16:11.089Z,18.34
2018-10-19T20:18:41.406Z,18.03
2018-10-19T20:21:09.988Z,18.29
2018-10-19T20:23:38.979Z,18.56
2018-10-19T20:26:07.964Z,18.36
2018-10-19T20:28:48.493Z,17.96
2018-10-19T20:31:17.174Z,18.38
2018-10-19T20:33:47.333Z,18.54
2018-10-19T20:36:15.996Z,18.50
2018-10-19T20:38:49.754Z,18.52
2018-10-19T20:41:21.181Z,18.47
2018-10-19T20:43:49.910Z,18.44
2018-10-19T20:46:19.780Z,18.44
2018-10-19T20:48:48.690Z,18.35
2018-10-19T20:51:17.083Z,18.28
2018-10-19T20:53:45.906Z,18.29
2018-10-19T20:56:15.051Z,18.19
2018-10-19T20:58:54.872Z,18.35
2018-10-19T21:01:25.688Z,18.41
2018-10-19T21:03:54.568Z,18.42
2018-10-19T21:06:24.139Z,18.14
2018-10-19T21:08:58.427Z,18.22
2018-10-19T21:11:27.056Z,18.21
2018-10-19T21:13:55.478Z,18.17
2018-10-19T21:16:24.842Z,18.16
2018-10-19T21:18:53.227Z,17.95
2018-10-19T21:21:21.719Z,18.10
2018-10-19T21:23:51.322Z,17.93
2018-10-19T21:26:19.893Z,17.85
2018-10-19T21:28:48.720Z,17.72
2018-10-19T21:31:17.988Z,17.69
2018-10-19T21:33:48.684Z,17.63
2018-10-19T21:36:18.018Z,17.61
2018-10-19T21:38:46.485Z,17.54
2018-10-19T21:41:18.538Z,17.47
2018-10-19T21:43:49.173Z,17.50
2018-10-19T21:46:17.553Z,17.35
2018-10-19T21:48:50.150Z,17.31
2018-10-19T21:51:20.324Z,17.35
2018-10-19T21:53:49.814Z,17.41
2018-10-19T21:56:18.234Z,17.41
2018-10-19T21:59:02.746Z,17.37
2018-10-19T22:01:34.968Z,17.35
2018-10-19T22:04:03.453Z,17.41
2018-10-19T22:06:32.969Z,17.30
2018-10-19T22:09:01.542Z,17.15
2018-10-19T22:11:30.220Z,16.88
2018-10-19T22:13:58.747Z,16.83
2018-10-19T22:16:30.993Z,16.92
2018-10-19T22:18:59.637Z,17.22
2018-10-19T22:21:28.633Z,17.04
2018-10-19T22:23:59.222Z,17.19
2018-10-19T22:26:27.664Z,17.00
2018-10-19T22:29:00.209Z,16.86
2018-10-19T22:31:28.824Z,16.99
2018-10-19T22:33:57.277Z,16.99
2018-10-19T22:36:26.747Z,16.90
2018-10-19T22:38:55.434Z,16.89
2018-10-19T22:41:24.982Z,16.76
2018-10-19T22:43:53.916Z,16.88
2018-10-19T22:46:23.065Z,16.86
2018-10-19T22:48:57.542Z,16.58
2018-10-19T22:51:26.132Z,16.80
2018-10-19T22:53:58.318Z,16.88
2018-10-19T22:56:51.119Z,16.72
2018-10-19T23:05:06.558Z,16.18
2018-10-19T23:07:36.602Z,16.29
2018-10-19T23:10:06.161Z,16.44
2018-10-19T23:12:40.463Z,16.03
2018-10-19T23:15:09.180Z,16.33
2018-10-19T23:17:37.641Z,16.25
2018-10-19T23:20:09.022Z,16.43
2018-10-19T23:22:37.477Z,16.46
2018-10-19T23:25:08.636Z,16.28
2018-10-19T23:27:37.037Z,16.28
2018-10-19T23:30:05.855Z,16.32
2018-10-19T23:32:50.991Z,16.29
2018-10-19T23:35:19.472Z,16.17
2018-10-19T23:37:48.118Z,16.31
2018-10-19T23:40:21.699Z,16.24
2018-10-19T23:42:50.234Z,16.11
2018-10-19T23:45:18.661Z,16.20
2018-10-19T23:47:47.010Z,15.71
2018-10-19T23:50:15.555Z,15.85
2018-10-19T23:52:43.868Z,15.94
2018-10-19T23:55:12.331Z,16.20
2018-10-19T23:57:40.626Z,16.13
